This is the latest recevied weather packets stored in our database for station/object DB0NLS-15. If no packets are shown the sender has not sent any weather packets the latest 1 day(s).
| Time | Temp. | Humidity | Pressure | Rain* | Wind** | Luminosity | Snow |
|---|---|---|---|---|---|---|---|
| 1778016066 | 15° C | 85% | 994.9 hPa | 1.52 mm | 0.45 m/s, 15° | - | - |
| 1778015461 | 15° C | 83% | 995 hPa | 0.25 mm | 0.89 m/s, 35° | - | - |
| 1778014858 | 15° C | 81% | 994.8 hPa | 0 mm | 1.79 m/s, 38° | - | - |
| 1778014255 | 15.56° C | 79% | 994.8 hPa | 0 mm | 1.34 m/s, 38° | - | - |
| 1778013653 | 15.56° C | 79% | 994.8 hPa | 0 mm | 1.34 m/s, 56° | - | - |
| 1778013050 | 15.56° C | 79% | 994.6 hPa | 0 mm | 1.34 m/s, 36° | - | - |
| 1778012447 | 15.56° C | 78% | 994.6 hPa | 0 mm | 1.34 m/s, 37° | - | - |
| 1778011845 | 15.56° C | 77% | 994.6 hPa | 0 mm | 0.89 m/s, 33° | - | - |
| 1778011242 | 15.56° C | 77% | 994.6 hPa | 0 mm | 0.89 m/s, 29° | - | - |
| 1778010640 | 15.56° C | 76% | 994.8 hPa | 0 mm | 1.79 m/s, 41° | - | - |
| 1778010037 | 16.11° C | 75% | 994.7 hPa | 0 mm | 1.34 m/s, 33° | - | - |
| 1778009434 | 16.11° C | 74% | 994.7 hPa | 0 mm | 0.89 m/s, 22° | - | - |
| 1778008832 | 16.67° C | 71% | 994.8 hPa | 0 mm | 0.89 m/s, 27° | - | - |
| 1778008229 | 16.67° C | 69% | 995 hPa | 0 mm | 0.89 m/s, 27° | - | - |
| 1778007626 | 16.67° C | 69% | 995 hPa | 0 mm | 0.89 m/s, 35° | - | - |
| 1778007023 | 16.67° C | 71% | 995 hPa | 0 mm | 0.89 m/s, 38° | - | - |
| 1778006420 | 16.67° C | 70% | 995.2 hPa | 0 mm | 0.89 m/s, 45° | - | - |
| 1778005818 | 16.67° C | 70% | 995.2 hPa | 0 mm | 0.45 m/s, 39° | - | - |
| 1778005215 | 17.22° C | 70% | 995 hPa | 0 mm | 1.34 m/s, 17° | - | - |
| 1778004673 | 17.22° C | 71% | 995 hPa | 0 mm | 0.45 m/s, 35° | - | - |
| 1778004070 | 17.22° C | 70% | 995.1 hPa | 0 mm | 0.45 m/s, 38° | - | - |
| 1778003467 | 17.22° C | 71% | 995.3 hPa | 0 mm | 0.89 m/s, 43° | - | - |
| 1778002865 | 17.22° C | 72% | 995.3 hPa | 0 mm | 0.89 m/s, 40° | - | - |
| 1778002262 | 17.22° C | 71% | 995.3 hPa | 0 mm | 0.45 m/s, 36° | - | - |
| 1778001660 | 17.78° C | 71% | 995.3 hPa | 0 mm | 0.45 m/s, 36° | - | - |
* Rain latest hour (hover to see other rain measurements)
** Current wind speed in m/s (hover to see current wind gust speed)